Time;durP1;ratioP1;P1;durP2;ratioP2;P2;SDS_P1;SDS_P2;PMS_P1;PMS_P2;Temp;Humidity;BMP_temperature;BMP_pressure;BME280_temperature;BME280_humidity;BME280_pressure;Samples;Min_cycle;Max_cycle;Signal;HPM_P1;HPM_P2
2022/01/15 00:00:37;;;;;;;0.22;0.22;;;6.00;99.90;;;;;;5032036;28;20128;-85
2022/01/15 00:03:04;;;;;;;1.65;0.55;;;6.00;99.90;;;;;;5015927;28;20479;-85
2022/01/15 00:05:31;;;;;;;0.68;0.68;;;5.90;99.90;;;;;;5015656;28;20034;-85
2022/01/15 00:07:57;;;;;;;0.30;0.30;;;5.90;99.90;;;;;;5031688;28;20401;-85
2022/01/15 00:10:27;;;;;;;1.35;0.52;;;5.90;99.90;;;;;;5015573;28;20113;-85
2022/01/15 00:12:53;;;;;;;0.30;0.30;;;5.90;99.90;;;;;;5015824;28;20044;-85
2022/01/15 00:15:25;;;;;;;0.30;0.30;;;5.90;99.90;;;;;;5015659;28;20037;-85
2022/01/15 00:18:05;;;;;;;0.30;0.30;;;5.90;99.90;;;;;;5015041;28;20033;-85
2022/01/15 00:20:31;;;;;;;0.13;0.13;;;5.90;99.90;;;;;;5015625;28;20044;-85
2022/01/15 00:22:59;;;;;;;1.60;1.50;;;5.90;99.90;;;;;;5031762;28;20406;-85
2022/01/15 00:25:27;;;;;;;0.30;0.30;;;6.00;99.90;;;;;;5015621;28;20033;-84
2022/01/15 00:27:53;;;;;;;0.30;0.30;;;5.90;99.90;;;;;;5031276;28;20107;-85
2022/01/15 00:30:20;;;;;;;0.20;0.20;;;5.90;99.90;;;;;;5032103;28;20033;-85
2022/01/15 00:32:46;;;;;;;0.30;0.30;;;5.90;99.90;;;;;;5015368;28;20466;-85
2022/01/15 00:35:14;;;;;;;0.20;0.20;;;5.90;99.90;;;;;;5015411;28;20077;-85
2022/01/15 00:37:41;;;;;;;0.43;0.43;;;5.90;99.90;;;;;;5015237;28;20043;-85
2022/01/15 00:40:09;;;;;;;0.82;0.82;;;5.90;99.90;;;;;;5015275;28;20084;-85
2022/01/15 00:42:37;;;;;;;0.30;0.30;;;5.90;99.90;;;;;;5031583;28;20044;-85
2022/01/15 00:45:04;;;;;;;0.80;0.70;;;5.90;99.90;;;;;;5015294;28;20402;-85
2022/01/15 00:47:33;;;;;;;0.20;0.20;;;5.90;99.90;;;;;;5014824;28;20069;-85
2022/01/15 00:50:00;;;;;;;0.20;0.20;;;5.90;99.90;;;;;;5015012;28;20394;-85
2022/01/15 00:52:26;;;;;;;1.13;0.45;;;5.90;99.90;;;;;;5014974;28;20041;-86
2022/01/15 00:54:52;;;;;;;0.20;0.20;;;5.90;99.90;;;;;;5015077;28;20048;-85
2022/01/15 00:57:17;;;;;;;0.30;0.30;;;6.00;99.90;;;;;;5015330;28;20107;-85
2022/01/15 00:59:43;;;;;;;0.88;0.80;;;5.90;99.90;;;;;;5015385;28;20495;-85
2022/01/15 01:02:08;;;;;;;0.20;0.20;;;5.90;99.90;;;;;;5015119;28;20033;-85
2022/01/15 01:04:34;;;;;;;0.30;0.30;;;5.90;99.90;;;;;;5015007;28;20033;-85
2022/01/15 01:07:00;;;;;;;0.30;0.30;;;5.90;99.90;;;;;;5014783;28;20040;-85
2022/01/15 01:09:33;;;;;;;0.20;0.20;;;5.90;99.90;;;;;;5014998;28;20041;-85
2022/01/15 01:12:19;;;;;;;0.30;0.30;;;5.90;99.90;;;;;;5018180;28;20064;-85
2022/01/15 01:20:51;;;;;;;0.28;0.28;;;5.80;99.90;;;;;;4999891;28;20653;-85
2022/01/15 01:23:09;;;;;;;0.28;0.28;;;5.80;99.90;;;;;;5034029;28;20463;-85
2022/01/15 01:25:40;;;;;;;0.77;0.77;;;5.80;99.90;;;;;;5018562;28;20116;-85
2022/01/15 01:28:11;;;;;;;0.30;0.30;;;5.90;99.90;;;;;;5018316;28;20048;-85
2022/01/15 01:30:45;;;;;;;0.50;0.50;;;5.80;99.90;;;;;;5018692;28;20483;-85
2022/01/15 01:35:50;;;;;;;0.10;0.10;;;5.80;99.90;;;;;;5034824;28;20407;-86
2022/01/15 01:38:52;;;;;;;0.20;0.20;;;5.90;99.90;;;;;;5018250;28;20057;-85
2022/01/15 01:41:13;;;;;;;0.20;0.20;;;5.80;99.90;;;;;;5032811;28;20185;-85
2022/01/15 01:43:44;;;;;;;0.20;0.20;;;5.80;99.90;;;;;;5018212;28;20091;-85
2022/01/15 01:48:53;;;;;;;0.30;0.30;;;5.90;99.90;;;;;;5034858;28;20225;-85
2022/01/15 01:51:29;;;;;;;0.20;0.20;;;5.80;99.90;;;;;;5017950;28;20049;-86
2022/01/15 01:53:57;;;;;;;0.30;0.30;;;5.80;99.90;;;;;;5018289;28;20041;-86
2022/01/15 01:56:22;;;;;;;0.50;0.50;;;5.80;99.90;;;;;;5017899;28;20191;-86
2022/01/15 01:58:49;;;;;;;0.30;0.30;;;5.80;99.90;;;;;;5034730;28;20124;-85
2022/01/15 02:01:14;;;;;;;3.15;1.48;;;5.80;99.90;;;;;;5018068;28;20521;-85
2022/01/15 02:03:40;;;;;;;1.20;1.10;;;5.90;99.90;;;;;;5018060;28;20120;-85
2022/01/15 02:06:06;;;;;;;0.55;0.55;;;5.80;99.90;;;;;;5017514;28;20406;-86
2022/01/15 02:08:37;;;;;;;0.20;0.20;;;5.80;99.90;;;;;;5017902;28;20045;-85
2022/01/15 02:11:04;;;;;;;0.52;0.52;;;5.80;99.90;;;;;;5034166;28;20122;-85
2022/01/15 02:13:31;;;;;;;0.88;0.88;;;5.80;99.90;;;;;;5034379;28;20664;-85
2022/01/15 02:15:58;;;;;;;0.38;0.38;;;5.80;99.90;;;;;;5017660;28;20041;-85
2022/01/15 02:18:25;;;;;;;0.30;0.30;;;5.80;99.90;;;;;;5033574;28;20041;-85
2022/01/15 02:23:33;;;;;;;0.40;0.40;;;5.80;99.90;;;;;;5033171;28;20100;-85
2022/01/15 02:26:10;;;;;;;1.45;1.20;;;5.80;99.90;;;;;;5017510;28;20030;-87
2022/01/15 02:28:41;;;;;;;0.30;0.30;;;5.80;99.90;;;;;;5017693;28;20073;-85
2022/01/15 02:31:09;;;;;;;0.30;0.30;;;5.80;99.90;;;;;;5017328;28;20411;-85
2022/01/15 02:33:37;;;;;;;0.25;0.25;;;5.80;99.90;;;;;;5017250;28;20501;-85
2022/01/15 02:36:05;;;;;;;0.28;0.28;;;5.80;99.90;;;;;;5016995;28;20041;-86
2022/01/15 02:38:31;;;;;;;0.20;0.20;;;5.80;99.90;;;;;;5016958;28;20080;-85
2022/01/15 02:40:56;;;;;;;0.20;0.20;;;5.80;99.90;;;;;;5017219;28;20073;-85
2022/01/15 02:43:29;;;;;;;0.65;0.63;;;5.80;99.90;;;;;;5033673;28;20041;-85
2022/01/15 02:45:56;;;;;;;0.20;0.20;;;5.80;99.90;;;;;;5017110;28;20050;-86
2022/01/15 02:48:27;;;;;;;0.30;0.30;;;5.80;99.90;;;;;;5016519;28;20061;-85
2022/01/15 02:50:53;;;;;;;0.20;0.20;;;5.80;99.90;;;;;;5017101;28;20042;-85
2022/01/15 02:53:19;;;;;;;0.50;0.50;;;5.80;99.90;;;;;;5017227;28;20051;-85
2022/01/15 02:55:47;;;;;;;0.20;0.20;;;5.80;99.90;;;;;;5017024;28;20397;-85
2022/01/15 02:58:14;;;;;;;0.30;0.30;;;5.80;99.90;;;;;;5016594;28;20044;-85
2022/01/15 03:00:40;;;;;;;0.20;0.20;;;5.80;99.90;;;;;;5016903;28;20038;-85
2022/01/15 03:03:06;;;;;;;0.50;0.50;;;5.80;99.90;;;;;;5016813;28;20044;-85
2022/01/15 03:05:32;;;;;;;0.22;0.22;;;5.80;99.90;;;;;;5016568;28;20037;-85
2022/01/15 03:07:57;;;;;;;0.32;0.32;;;5.80;99.90;;;;;;5016532;28;20037;-86
2022/01/15 03:10:23;;;;;;;0.30;0.30;;;5.80;99.90;;;;;;5016573;28;20037;-86
2022/01/15 03:12:48;;;;;;;0.30;0.30;;;5.70;99.90;;;;;;5016676;28;20033;-85
2022/01/15 03:15:20;;;;;;;0.30;0.30;;;5.70;99.90;;;;;;5016759;28;20029;-85
2022/01/15 03:17:47;;;;;;;0.30;0.30;;;5.70;99.90;;;;;;5016196;28;20102;-85
2022/01/15 03:20:14;;;;;;;0.20;0.20;;;5.80;99.90;;;;;;5016389;28;20398;-85
2022/01/15 03:22:39;;;;;;;2.20;1.15;;;5.80;99.90;;;;;;5016260;28;20095;-85
2022/01/15 03:25:06;;;;;;;0.20;0.20;;;5.80;99.90;;;;;;5016381;28;20033;-84
2022/01/15 03:27:31;;;;;;;0.20;0.20;;;5.80;99.90;;;;;;5015999;28;20041;-85
2022/01/15 03:29:57;;;;;;;0.30;0.30;;;5.70;99.90;;;;;;5016600;28;20034;-85
2022/01/15 03:32:23;;;;;;;0.35;0.35;;;5.70;99.90;;;;;;5016457;28;20041;-85
2022/01/15 03:34:49;;;;;;;0.20;0.20;;;5.70;99.90;;;;;;5016043;28;20041;-85
2022/01/15 03:37:15;;;;;;;0.32;0.32;;;5.70;99.90;;;;;;5015765;28;20037;-85
2022/01/15 03:39:41;;;;;;;0.25;0.25;;;5.80;99.90;;;;;;5015959;28;20037;-86
2022/01/15 03:42:11;;;;;;;0.30;0.30;;;5.70;99.90;;;;;;5015950;28;20051;-85
2022/01/15 03:44:43;;;;;;;0.30;0.30;;;5.70;99.90;;;;;;5016198;28;20507;-85
2022/01/15 03:47:10;;;;;;;0.32;0.32;;;5.70;99.90;;;;;;5015702;28;20037;-86
2022/01/15 03:49:36;;;;;;;0.20;0.20;;;5.70;99.90;;;;;;5015775;28;20038;-85
2022/01/15 03:52:03;;;;;;;0.20;0.20;;;5.70;99.90;;;;;;5015875;28;20041;-85
2022/01/15 03:54:29;;;;;;;0.30;0.30;;;5.70;99.90;;;;;;5015857;28;20128;-85
2022/01/15 03:56:55;;;;;;;0.40;0.40;;;5.70;99.90;;;;;;5032059;28;20124;-85
2022/01/15 03:59:20;;;;;;;0.20;0.20;;;5.70;99.90;;;;;;5015798;28;20045;-85
2022/01/15 04:01:46;;;;;;;0.40;0.35;;;5.70;99.90;;;;;;5015717;28;20475;-85
2022/01/15 04:04:12;;;;;;;0.40;0.40;;;5.70;99.90;;;;;;5015627;28;20044;-85
2022/01/15 04:06:38;;;;;;;0.63;0.63;;;5.70;99.90;;;;;;5015159;28;20099;-85
2022/01/15 04:09:03;;;;;;;0.30;0.30;;;5.70;99.90;;;;;;5015651;28;20033;-85
2022/01/15 04:11:29;;;;;;;0.30;0.30;;;5.80;99.90;;;;;;5015661;28;20038;-85
2022/01/15 04:13:55;;;;;;;0.28;0.28;;;5.70;99.90;;;;;;5015858;28;20077;-85
2022/01/15 04:16:20;;;;;;;0.30;0.30;;;5.70;99.90;;;;;;5015116;28;20041;-85
2022/01/15 04:18:46;;;;;;;0.43;0.43;;;5.70;99.90;;;;;;5015337;28;20052;-85
2022/01/15 04:21:13;;;;;;;0.28;0.28;;;5.70;99.90;;;;;;5015312;28;20041;-85
2022/01/15 04:23:38;;;;;;;0.25;0.25;;;5.60;99.90;;;;;;5015292;28;20041;-84
2022/01/15 04:26:04;;;;;;;0.30;0.30;;;5.70;99.90;;;;;;5031462;28;20104;-85
2022/01/15 04:28:32;;;;;;;0.30;0.30;;;5.60;99.90;;;;;;5015435;28;20613;-85
2022/01/15 04:31:04;;;;;;;0.20;0.20;;;5.60;99.90;;;;;;5015303;28;20042;-85
2022/01/15 04:33:35;;;;;;;0.20;0.20;;;5.60;99.90;;;;;;5015318;28;20144;-85
2022/01/15 04:36:03;;;;;;;0.20;0.20;;;5.60;99.90;;;;;;5015468;28;20052;-85
2022/01/15 04:38:30;;;;;;;0.30;0.30;;;5.60;99.90;;;;;;5015190;28;20041;-85
2022/01/15 04:40:56;;;;;;;0.22;0.22;;;5.60;99.90;;;;;;5015420;28;20132;-85
2022/01/15 04:43:21;;;;;;;0.20;0.20;;;5.60;99.90;;;;;;5015508;28;20140;-85
2022/01/15 04:45:54;;;;;;;0.30;0.30;;;5.60;99.90;;;;;;5016848;28;20033;-85
2022/01/15 04:48:20;;;;;;;0.30;0.30;;;5.60;99.90;;;;;;5019148;28;20435;-85
2022/01/15 04:50:46;;;;;;;0.30;0.30;;;5.60;99.90;;;;;;5019405;28;20108;-85
2022/01/15 04:53:11;;;;;;;0.32;0.32;;;5.60;99.90;;;;;;5019456;28;20041;-85
2022/01/15 04:55:37;;;;;;;0.20;0.20;;;5.50;99.90;;;;;;5035699;28;20092;-85
2022/01/15 04:58:04;;;;;;;0.40;0.40;;;5.50;99.90;;;;;;5018618;28;20076;-86
2022/01/15 05:00:30;;;;;;;0.20;0.20;;;5.50;99.90;;;;;;5035664;28;20037;-85
2022/01/15 05:02:57;;;;;;;0.30;0.30;;;5.60;99.90;;;;;;5019085;28;20090;-85
2022/01/15 05:05:24;;;;;;;0.20;0.20;;;5.50;99.90;;;;;;5018861;28;20467;-85
2022/01/15 05:07:52;;;;;;;0.32;0.32;;;5.50;99.90;;;;;;5018467;28;20403;-86
2022/01/15 05:10:19;;;;;;;0.30;0.30;;;5.50;99.90;;;;;;5018805;28;20372;-85
2022/01/15 05:12:47;;;;;;;0.30;0.30;;;5.50;99.90;;;;;;5018823;28;20510;-85
2022/01/15 05:15:15;;;;;;;0.28;0.28;;;5.50;99.90;;;;;;5018966;28;20037;-85
2022/01/15 05:17:42;;;;;;;0.30;0.30;;;5.50;99.90;;;;;;5018263;28;20040;-85
2022/01/15 05:20:09;;;;;;;0.65;0.65;;;5.50;99.90;;;;;;5018874;28;20037;-85
2022/01/15 05:22:35;;;;;;;0.20;0.20;;;5.50;99.90;;;;;;5018668;28;20042;-85
2022/01/15 05:25:03;;;;;;;0.22;0.22;;;5.50;99.90;;;;;;5035090;28;20029;-85
2022/01/15 05:27:28;;;;;;;0.30;0.30;;;5.40;99.90;;;;;;5018347;28;20399;-85
2022/01/15 05:29:54;;;;;;;0.30;0.30;;;5.40;99.90;;;;;;5018617;28;20040;-85
2022/01/15 05:32:23;;;;;;;0.38;0.38;;;5.40;99.90;;;;;;5035227;28;20037;-85
2022/01/15 05:34:49;;;;;;;0.50;0.50;;;5.40;99.90;;;;;;5018323;28;20037;-85
2022/01/15 05:37:15;;;;;;;0.60;0.60;;;5.50;99.90;;;;;;5018006;28;20048;-85
2022/01/15 05:39:40;;;;;;;0.30;0.30;;;5.50;99.90;;;;;;5018588;28;20042;-85
2022/01/15 05:42:06;;;;;;;0.30;0.30;;;5.40;99.90;;;;;;5018729;28;20073;-85
2022/01/15 05:44:32;;;;;;;0.50;0.50;;;5.40;99.90;;;;;;5018465;28;20040;-85
2022/01/15 05:46:58;;;;;;;1.40;1.30;;;5.40;99.90;;;;;;5034435;28;20490;-85
2022/01/15 05:49:23;;;;;;;0.30;0.30;;;5.40;99.90;;;;;;5017907;28;20088;-86
2022/01/15 05:51:49;;;;;;;0.40;0.40;;;5.40;99.90;;;;;;5018468;28;20049;-85
2022/01/15 05:54:15;;;;;;;0.35;0.35;;;5.30;99.90;;;;;;5018050;28;20037;-85
2022/01/15 05:56:40;;;;;;;0.30;0.30;;;5.30;99.90;;;;;;5017776;28;20049;-85
2022/01/15 05:59:07;;;;;;;0.30;0.30;;;5.30;99.90;;;;;;5018267;28;20041;-85
2022/01/15 06:01:33;;;;;;;0.30;0.30;;;5.30;99.90;;;;;;5017807;28;20056;-85
2022/01/15 06:03:59;;;;;;;0.40;0.40;;;5.30;99.90;;;;;;5017785;28;20037;-85
2022/01/15 06:06:24;;;;;;;0.20;0.20;;;5.20;99.90;;;;;;5017571;28;20445;-85
2022/01/15 06:08:50;;;;;;;0.95;0.65;;;5.20;99.90;;;;;;5018028;28;20079;-85
2022/01/15 06:11:17;;;;;;;0.50;0.50;;;5.20;99.90;;;;;;5034210;28;20077;-83
2022/01/15 06:13:47;;;;;;;0.32;0.32;;;5.20;99.90;;;;;;5017822;28;20112;-85
2022/01/15 06:16:14;;;;;;;0.30;0.30;;;5.20;99.90;;;;;;5017541;28;20507;-85
2022/01/15 06:18:39;;;;;;;0.30;0.30;;;5.20;99.90;;;;;;5017409;28;20041;-85
2022/01/15 06:21:06;;;;;;;0.30;0.30;;;5.30;99.90;;;;;;5033862;28;20052;-85
2022/01/15 06:23:31;;;;;;;0.20;0.20;;;5.20;99.90;;;;;;5017514;28;20429;-85
2022/01/15 06:25:57;;;;;;;0.55;0.55;;;5.20;99.90;;;;;;5017644;28;20095;-85
2022/01/15 06:28:22;;;;;;;0.30;0.30;;;5.20;99.90;;;;;;5016819;28;20041;-85
2022/01/15 06:30:48;;;;;;;0.25;0.25;;;5.20;99.90;;;;;;5017689;28;20083;-85
2022/01/15 06:33:14;;;;;;;0.30;0.30;;;5.20;99.90;;;;;;5017471;28;20046;-85
2022/01/15 06:35:40;;;;;;;0.20;0.20;;;5.20;99.90;;;;;;5017157;28;20034;-85
2022/01/15 06:38:05;;;;;;;0.95;0.85;;;5.10;99.90;;;;;;5016872;28;20069;-85
2022/01/15 06:40:31;;;;;;;0.95;0.73;;;5.20;99.90;;;;;;5017535;28;20107;-84
2022/01/15 06:42:59;;;;;;;0.40;0.40;;;5.10;99.90;;;;;;5017322;28;20053;-84
2022/01/15 06:45:26;;;;;;;0.32;0.32;;;5.10;99.90;;;;;;5017128;28;20037;-85
2022/01/15 06:47:51;;;;;;;0.57;0.45;;;5.10;99.90;;;;;;5016676;28;20049;-84
2022/01/15 06:50:17;;;;;;;0.30;0.30;;;5.10;99.90;;;;;;5016838;28;20048;-84
2022/01/15 06:52:43;;;;;;;0.30;0.30;;;5.20;99.90;;;;;;5016973;28;20418;-85
2022/01/15 06:55:09;;;;;;;0.25;0.25;;;5.10;99.90;;;;;;5017290;28;20088;-85
2022/01/15 06:57:35;;;;;;;0.20;0.20;;;5.10;99.90;;;;;;5016721;28;20079;-85
2022/01/15 07:00:02;;;;;;;0.30;0.30;;;5.10;99.90;;;;;;5016987;28;20068;-85
2022/01/15 07:02:27;;;;;;;0.20;0.20;;;5.10;99.90;;;;;;5015041;28;20037;-87
2022/01/15 07:04:53;;;;;;;0.32;0.32;;;5.10;99.90;;;;;;5015790;28;20486;-84
2022/01/15 07:07:18;;;;;;;0.40;0.40;;;5.20;99.90;;;;;;5015804;28;20034;-85
2022/01/15 07:09:44;;;;;;;0.30;0.30;;;5.10;99.90;;;;;;5015602;28;20068;-85
2022/01/15 07:12:10;;;;;;;0.30;0.30;;;5.10;99.90;;;;;;5015818;28;20098;-85
2022/01/15 07:14:35;;;;;;;0.30;0.30;;;5.10;99.90;;;;;;5015831;28;20072;-85
2022/01/15 07:17:01;;;;;;;0.35;0.35;;;5.00;99.90;;;;;;5015604;28;20072;-85
2022/01/15 07:19:27;;;;;;;0.30;0.30;;;5.00;99.90;;;;;;5015902;28;20049;-85
2022/01/15 07:21:52;;;;;;;0.32;0.32;;;5.00;99.90;;;;;;5015770;28;20557;-85
2022/01/15 07:24:18;;;;;;;0.65;0.60;;;5.00;99.90;;;;;;5015574;28;20063;-85
2022/01/15 07:26:44;;;;;;;0.30;0.30;;;5.00;99.90;;;;;;5031528;28;20102;-85
2022/01/15 07:29:15;;;;;;;0.38;0.38;;;5.00;99.90;;;;;;5015758;28;20075;-85
2022/01/15 07:31:42;;;;;;;0.50;0.50;;;5.00;99.90;;;;;;5015971;28;20665;-85
2022/01/15 07:34:08;;;;;;;0.30;0.30;;;5.00;99.90;;;;;;5015326;28;20048;-85
2022/01/15 07:36:34;;;;;;;0.32;0.32;;;4.90;99.90;;;;;;5015112;28;20041;-85
2022/01/15 07:39:00;;;;;;;0.40;0.40;;;5.00;99.90;;;;;;5015306;28;20045;-85
2022/01/15 07:41:25;;;;;;;0.43;0.43;;;4.90;99.90;;;;;;5015517;28;20379;-85
2022/01/15 07:43:51;;;;;;;0.40;0.40;;;5.00;99.90;;;;;;5015536;28;20491;-85
2022/01/15 07:46:17;;;;;;;1.27;0.77;;;4.90;99.90;;;;;;5015304;28;20116;-85
2022/01/15 07:48:42;;;;;;;0.68;0.40;;;4.90;99.90;;;;;;5015228;28;20065;-85
2022/01/15 07:51:08;;;;;;;0.30;0.30;;;4.90;99.90;;;;;;5015425;28;20499;-85
2022/01/15 07:53:34;;;;;;;0.30;0.30;;;4.90;99.90;;;;;;5015494;28;20467;-85
2022/01/15 07:56:00;;;;;;;0.20;0.20;;;4.90;99.90;;;;;;5015264;28;20107;-86
2022/01/15 07:58:25;;;;;;;0.50;0.50;;;4.90;99.90;;;;;;5014720;28;20487;-85
2022/01/15 08:00:51;;;;;;;0.40;0.40;;;4.90;99.90;;;;;;5015452;28;20037;-85
2022/01/15 08:03:17;;;;;;;0.40;0.40;;;4.90;99.90;;;;;;5015303;28;20455;-85
2022/01/15 08:05:43;;;;;;;1.17;0.95;;;4.80;99.90;;;;;;5031419;28;20033;-85
2022/01/15 08:08:09;;;;;;;0.65;0.55;;;4.80;99.90;;;;;;5014635;28;20038;-85
2022/01/15 08:10:34;;;;;;;0.60;0.60;;;4.80;99.90;;;;;;5031291;28;20087;-85
2022/01/15 08:13:00;;;;;;;0.30;0.30;;;4.80;99.90;;;;;;5031567;28;20384;-85
2022/01/15 08:15:26;;;;;;;0.70;0.70;;;4.80;99.90;;;;;;5031269;28;20042;-85
2022/01/15 08:17:51;;;;;;;1.08;0.77;;;4.80;99.90;;;;;;5047539;28;20049;-85
2022/01/15 08:20:17;;;;;;;2.20;0.75;;;4.80;99.90;;;;;;5014398;28;20041;-85
2022/01/15 08:22:44;;;;;;;0.70;0.63;;;4.80;99.90;;;;;;5014729;28;20045;-85
2022/01/15 08:25:12;;;;;;;0.30;0.30;;;4.70;99.90;;;;;;5014821;28;20033;-85
2022/01/15 08:27:37;;;;;;;0.20;0.20;;;4.70;99.90;;;;;;5014153;28;20038;-85
2022/01/15 08:30:05;;;;;;;0.57;0.40;;;4.70;99.90;;;;;;5015080;28;20029;-85
2022/01/15 08:32:30;;;;;;;0.40;0.40;;;4.70;99.90;;;;;;5014957;28;20048;-85
2022/01/15 08:34:56;;;;;;;3.30;1.48;;;4.70;99.90;;;;;;5014458;28;20037;-85
2022/01/15 08:37:21;;;;;;;0.40;0.40;;;4.60;99.90;;;;;;5014336;28;20103;-86
2022/01/15 08:39:47;;;;;;;4.85;1.13;;;4.70;99.90;;;;;;4995303;28;20096;-85
2022/01/15 08:42:12;;;;;;;2.33;0.90;;;4.60;99.90;;;;;;5003733;28;20045;-85
2022/01/15 08:44:42;;;;;;;1.52;1.05;;;4.70;99.90;;;;;;5031238;28;20030;-85
2022/01/15 08:47:08;;;;;;;1.30;1.02;;;4.70;99.90;;;;;;5014277;28;20044;-85
2022/01/15 08:49:34;;;;;;;0.52;0.50;;;4.70;99.90;;;;;;5014520;28;20402;-85
2022/01/15 08:51:59;;;;;;;0.30;0.30;;;4.70;99.90;;;;;;5030897;28;20061;-86
2022/01/15 08:54:25;;;;;;;2.50;0.75;;;4.70;99.90;;;;;;5030936;28;20041;-85
2022/01/15 08:56:50;;;;;;;0.90;0.75;;;4.70;99.90;;;;;;5030750;28;20120;-85
2022/01/15 08:59:16;;;;;;;0.50;0.43;;;4.60;99.90;;;;;;5014037;28;20130;-85
2022/01/15 09:01:42;;;;;;;0.85;0.82;;;4.70;99.90;;;;;;5014315;28;20155;-85
2022/01/15 09:04:07;;;;;;;0.90;0.82;;;4.60;99.90;;;;;;5030773;28;20033;-85
2022/01/15 09:06:33;;;;;;;1.55;0.85;;;4.60;99.90;;;;;;5013920;28;20139;-85
2022/01/15 09:08:59;;;;;;;2.08;1.10;;;4.60;99.90;;;;;;5014387;28;20045;-85
2022/01/15 09:11:24;;;;;;;0.30;0.30;;;4.70;99.90;;;;;;5014436;28;20120;-85
2022/01/15 09:13:50;;;;;;;0.65;0.65;;;4.70;99.90;;;;;;5014591;28;20081;-85
2022/01/15 09:16:15;;;;;;;1.40;1.30;;;4.60;99.90;;;;;;5030264;28;20406;-85
2022/01/15 09:18:41;;;;;;;0.73;0.57;;;4.60;99.90;;;;;;5030673;28;20034;-85
2022/01/15 09:21:07;;;;;;;0.70;0.65;;;4.60;99.90;;;;;;5030437;28;20510;-85
2022/01/15 09:23:32;;;;;;;0.80;0.80;;;4.60;99.90;;;;;;5014093;28;20441;-85
2022/01/15 09:25:59;;;;;;;1.42;1.33;;;4.70;99.90;;;;;;5014026;28;20034;-85
2022/01/15 09:31:13;;;;;;;0.25;0.25;;;4.60;99.90;;;;;;5030782;28;20111;-85
2022/01/15 09:33:38;;;;;;;0.43;0.40;;;4.60;99.90;;;;;;5017976;28;20041;-85
2022/01/15 09:36:04;;;;;;;1.65;1.40;;;4.50;99.90;;;;;;5017680;28;20091;-86
2022/01/15 09:38:31;;;;;;;0.68;0.40;;;4.50;99.90;;;;;;5034275;28;20049;-85
2022/01/15 09:41:00;;;;;;;2.45;2.25;;;4.50;99.90;;;;;;5017618;28;20461;-86
2022/01/15 09:43:27;;;;;;;0.45;0.45;;;4.60;99.90;;;;;;5018081;28;20080;-85
2022/01/15 09:45:54;;;;;;;0.75;0.50;;;4.60;99.90;;;;;;5017453;28;20025;-85
2022/01/15 09:48:24;;;;;;;0.40;0.40;;;4.60;99.90;;;;;;5017244;28;20040;-85
2022/01/15 09:50:52;;;;;;;4.00;2.08;;;4.60;99.90;;;;;;5050659;28;20042;-85
2022/01/15 09:53:19;;;;;;;1.80;1.40;;;4.60;99.90;;;;;;5033728;28;20030;-85
2022/01/15 09:55:46;;;;;;;1.00;0.82;;;4.60;99.90;;;;;;5017503;28;20044;-85
2022/01/15 09:58:12;;;;;;;1.33;0.85;;;4.60;99.90;;;;;;5017227;28;20082;-86
2022/01/15 10:00:38;;;;;;;1.45;0.88;;;4.60;99.90;;;;;;5017388;28;20490;-85
2022/01/15 10:03:04;;;;;;;0.73;0.73;;;4.60;99.90;;;;;;5017334;28;20050;-85
2022/01/15 10:05:30;;;;;;;1.95;1.30;;;4.60;99.90;;;;;;5017158;28;20495;-85
2022/01/15 10:08:06;;;;;;;0.20;0.20;;;4.60;99.90;;;;;;5016735;28;20042;-85
2022/01/15 10:10:34;;;;;;;1.27;0.95;;;4.60;99.90;;;;;;5016825;28;20034;-84
2022/01/15 10:13:21;;;;;;;0.73;0.65;;;4.60;99.90;;;;;;5017150;28;20048;-85
2022/01/15 10:15:48;;;;;;;1.10;0.85;;;4.60;99.90;;;;;;5017092;28;20406;-85
2022/01/15 10:18:22;;;;;;;0.25;0.25;;;4.70;99.90;;;;;;5016637;28;20123;-87
2022/01/15 10:20:48;;;;;;;0.75;0.55;;;4.70;99.90;;;;;;5033145;28;20049;-84
2022/01/15 10:23:28;;;;;;;0.93;0.68;;;4.70;99.90;;;;;;5016882;28;20405;-86
2022/01/15 10:26:22;;;;;;;0.68;0.68;;;4.70;99.90;;;;;;5016984;28;20056;-85
2022/01/15 10:28:56;;;;;;;1.45;0.68;;;4.70;99.90;;;;;;5016871;28;20033;-85
2022/01/15 10:31:27;;;;;;;0.20;0.20;;;4.70;99.90;;;;;;5016616;28;20045;-85
2022/01/15 10:33:54;;;;;;;3.90;1.58;;;4.70;99.90;;;;;;5016855;28;20441;-85
2022/01/15 10:36:22;;;;;;;0.80;0.60;;;4.70;99.90;;;;;;5032407;28;20037;-85
2022/01/15 10:38:48;;;;;;;3.90;2.15;;;4.70;99.90;;;;;;5033142;28;20033;-85
2022/01/15 10:41:38;;;;;;;1.50;1.30;;;4.60;99.90;;;;;;5016487;28;20041;-86
2022/01/15 10:44:29;;;;;;;1.17;0.75;;;4.60;99.90;;;;;;5015573;28;20042;-85
2022/01/15 10:47:07;;;;;;;0.50;0.50;;;4.60;99.90;;;;;;5015710;28;20037;-85
2022/01/15 10:49:34;;;;;;;0.40;0.40;;;4.60;99.90;;;;;;5016255;28;20450;-86
2022/01/15 10:52:04;;;;;;;0.95;0.70;;;4.60;99.90;;;;;;5032920;28;20041;-85
2022/01/15 10:54:29;;;;;;;1.42;1.27;;;4.60;99.90;;;;;;5016172;28;20052;-85
2022/01/15 10:57:09;;;;;;;1.02;0.77;;;4.70;99.90;;;;;;5015559;28;20038;-85
2022/01/15 10:59:35;;;;;;;1.67;0.75;;;4.60;99.90;;;;;;5033033;28;20124;-85
2022/01/15 11:02:19;;;;;;;1.65;1.38;;;4.60;99.90;;;;;;5032678;28;20103;-85
2022/01/15 11:04:45;;;;;;;0.80;0.77;;;4.60;99.90;;;;;;5032514;28;20033;-85
2022/01/15 11:07:12;;;;;;;1.02;0.93;;;4.60;99.90;;;;;;5032549;28;20037;-85
2022/01/15 11:09:38;;;;;;;1.20;0.95;;;4.60;99.90;;;;;;5016076;28;20045;-85
2022/01/15 11:12:05;;;;;;;0.65;0.60;;;4.70;99.90;;;;;;5016361;28;20041;-84
2022/01/15 11:14:30;;;;;;;0.55;0.55;;;4.60;99.90;;;;;;5015863;28;20080;-85
2022/01/15 11:16:59;;;;;;;1.58;1.08;;;4.60;99.90;;;;;;5032341;28;20073;-85
2022/01/15 11:19:25;;;;;;;1.98;1.10;;;4.60;99.90;;;;;;5015716;28;20048;-85
2022/01/15 11:21:53;;;;;;;2.67;1.48;;;4.60;99.90;;;;;;5011465;28;20650;-86
2022/01/15 11:24:20;;;;;;;1.88;0.98;;;4.60;99.90;;;;;;5032417;28;20076;-85
2022/01/15 11:26:51;;;;;;;2.20;1.42;;;4.60;99.90;;;;;;5031840;28;20033;-85
2022/01/15 11:29:18;;;;;;;1.25;0.93;;;4.60;99.90;;;;;;5032269;28;20041;-84
2022/01/15 11:31:45;;;;;;;0.75;0.70;;;4.70;99.90;;;;;;5032195;28;20047;-84
2022/01/15 11:34:14;;;;;;;0.55;0.55;;;4.60;99.90;;;;;;5031991;28;20052;-85
2022/01/15 11:36:43;;;;;;;1.58;1.10;;;4.60;99.90;;;;;;5031601;28;20041;-84
2022/01/15 11:39:20;;;;;;;1.45;1.05;;;4.60;99.90;;;;;;5015489;28;20095;-85
2022/01/15 11:41:53;;;;;;;0.68;0.68;;;4.60;99.90;;;;;;5015309;28;20130;-85
2022/01/15 11:44:37;;;;;;;1.80;1.20;;;4.60;99.90;;;;;;5015387;28;20029;-84
2022/01/15 11:47:23;;;;;;;1.33;1.23;;;4.60;99.90;;;;;;5011905;28;20046;-84
2022/01/15 11:49:58;;;;;;;0.73;0.55;;;4.60;99.90;;;;;;4995610;28;20411;-85
2022/01/15 11:52:24;;;;;;;3.55;1.75;;;4.70;99.90;;;;;;5012020;28;20042;-84
2022/01/15 11:54:59;;;;;;;5.43;1.98;;;4.70;99.90;;;;;;5027997;28;20423;-84
2022/01/15 11:57:28;;;;;;;0.90;0.85;;;4.60;99.90;;;;;;5014979;28;20049;-85
2022/01/15 11:59:56;;;;;;;16.40;2.00;;;4.60;99.90;;;;;;5031621;28;20046;-84
2022/01/15 12:02:33;;;;;;;0.70;0.55;;;4.60;99.90;;;;;;5015289;28;20046;-84
2022/01/15 12:05:14;;;;;;;2.20;1.70;;;4.60;99.90;;;;;;5015116;28;20044;-84
2022/01/15 12:07:40;;;;;;;0.40;0.40;;;4.70;99.90;;;;;;5014845;28;20079;-84
2022/01/15 12:10:09;;;;;;;1.80;1.33;;;4.60;99.90;;;;;;5031352;28;20139;-85
2022/01/15 12:12:42;;;;;;;3.13;1.98;;;4.60;99.90;;;;;;5031769;28;20045;-84
2022/01/15 12:15:14;;;;;;;5.88;2.25;;;4.60;99.90;;;;;;5031379;28;20053;-85
2022/01/15 12:17:42;;;;;;;3.00;1.63;;;4.60;99.90;;;;;;5047696;28;20072;-84
2022/01/15 12:20:17;;;;;;;1.65;1.33;;;4.60;99.90;;;;;;5031355;28;20527;-84
2022/01/15 12:22:50;;;;;;;2.33;1.25;;;4.60;99.90;;;;;;5031395;28;20136;-84
2022/01/15 12:25:18;;;;;;;2.33;1.00;;;4.50;99.90;;;;;;5031297;28;20120;-84
2022/01/15 12:28:00;;;;;;;4.63;2.67;;;4.50;99.90;;;;;;5030779;28;20044;-84
2022/01/15 12:30:33;;;;;;;2.47;1.83;;;4.40;99.90;;;;;;5031076;28;20448;-84
2022/01/15 12:33:00;;;;;;;9.35;4.78;;;4.50;99.90;;;;;;5014641;28;20102;-84
2022/01/15 12:35:31;;;;;;;1.95;1.17;;;4.40;99.90;;;;;;5014537;28;20486;-83
2022/01/15 12:38:16;;;;;;;4.15;1.85;;;4.50;99.90;;;;;;5014295;28;20092;-84
2022/01/15 12:40:52;;;;;;;4.47;2.30;;;4.50;99.90;;;;;;5014808;28;20045;-84
2022/01/15 12:43:27;;;;;;;1.98;1.58;;;4.50;99.90;;;;;;5014368;28;20046;-84
2022/01/15 12:45:55;;;;;;;4.70;0.95;;;4.40;99.90;;;;;;5031130;28;20042;-84
2022/01/15 12:48:24;;;;;;;0.40;0.40;;;4.50;99.90;;;;;;5030733;28;20504;-84
2022/01/15 12:50:59;;;;;;;2.60;1.50;;;4.50;99.90;;;;;;5047546;28;20033;-84
2022/01/15 12:53:30;;;;;;;1.40;1.07;;;4.50;99.90;;;;;;5047651;28;20033;-84
2022/01/15 12:55:57;;;;;;;1.58;1.35;;;4.50;99.90;;;;;;5030928;28;20037;-84
2022/01/15 12:58:25;;;;;;;1.92;1.08;;;4.50;99.90;;;;;;5030457;28;20076;-84
2022/01/15 13:00:51;;;;;;;4.72;1.98;;;4.50;99.90;;;;;;5014555;28;20044;-84
2022/01/15 13:03:25;;;;;;;2.78;1.85;;;4.50;99.90;;;;;;5014400;28;20095;-84
2022/01/15 13:05:57;;;;;;;6.18;2.25;;;4.50;99.90;;;;;;5027775;28;20045;-84
2022/01/15 13:08:34;;;;;;;1.35;1.10;;;4.50;99.90;;;;;;4998143;28;20049;-84
2022/01/15 13:13:39;;;;;;;3.22;1.75;;;4.50;99.90;;;;;;5034776;28;20069;-84
2022/01/15 13:16:08;;;;;;;2.95;1.85;;;4.50;99.90;;;;;;5017240;28;20172;-85
2022/01/15 13:18:42;;;;;;;2.65;1.35;;;4.50;99.90;;;;;;5018174;28;20041;-84
2022/01/15 13:21:13;;;;;;;2.67;1.60;;;4.50;99.90;;;;;;5051228;28;20102;-84